CST,Max TemperatureF,Mean TemperatureF,Min TemperatureF,Max Dew PointF,MeanDew PointF,Min DewpointF,Max Humidity, Mean Humidity, Min Humidity, Max Sea Level PressureIn, Mean Sea Level PressureIn, Min Sea Level PressureIn, Max VisibilityMiles, Mean VisibilityMiles, Min VisibilityMiles, Max Wind SpeedMPH, Mean Wind SpeedMPH, Max Gust SpeedMPH,PrecipitationIn, CloudCover, Events, WindDirDegrees
2011-11-1,57,48,39,34,29,25,61,50,36,29.97,29.88,29.84,10,10,10,18,12,22,0.00,0,,190
2011-11-2,46,42,37,34,29,21,70,54,39,30.24,30.17,30.04,10,10,10,23,13,30,0.00,3,,348
2011-11-3,51,38,24,27,20,12,80,54,28,30.31,30.27,30.23,10,10,4,13,8,,0.00,0,,338
2011-11-4,53,36,19,30,22,10,86,57,28,30.26,30.17,30.03,10,10,9,22,11,30,0.00,0,,165
2011-11-5,55,47,39,41,36,28,87,69,54,30.03,29.84,29.68,10,10,10,33,22,40,0.00,1,,158
2011-11-6,51,44,37,43,33,19,82,63,34,30.02,29.75,29.56,10,10,10,31,21,37,0.00,1,,209
2011-11-7,53,40,26,21,19,18,69,46,26,30.23,30.16,30.04,10,10,5,12,8,18,0.00,0,,284
2011-11-8,44,40,35,27,23,19,65,51,43,30.19,30.15,30.11,10,10,10,14,7,16,0.00,3,,16
2011-11-9,41,37,33,23,20,18,56,51,39,30.12,30.08,30.05,10,10,10,28,13,34,0.00,1,,318
2011-11-10,35,29,23,21,17,9,69,59,48,30.13,30.08,30.02,10,10,5,22,16,29,0.00,1,,295
2011-11-11,60,42,24,27,19,12,60,46,25,29.96,29.73,29.64,10,10,10,20,10,23,0.00,0,,203
2011-11-12,59,42,26,36,27,16,69,53,39,29.63,29.48,29.29,10,10,10,24,11,30,0.00,0,,180
2011-11-13,50,46,41,36,30,27,76,56,46,29.52,29.34,29.23,10,10,10,16,11,22,0.00,3,,265
2011-11-14,53,40,28,32,25,16,86,58,28,29.64,29.54,29.46,10,10,10,23,11,30,0.00,1,,232
2011-11-15,46,37,26,27,19,12,60,48,31,29.99,29.73,29.53,10,10,10,26,13,34,0.00,1,,268
2011-11-16,39,29,19,16,10,3,68,53,28,30.19,30.11,30.01,10,10,10,28,13,37,0.00,0,,275
2011-11-17,35,22,10,12,8,1,79,50,33,30.23,30.12,29.88,10,10,8,16,8,,0.00,0,,187
2011-11-18,51,40,30,28,22,18,69,53,41,29.76,29.68,29.60,10,10,10,26,17,36,0.00,0,,207
2011-11-19,32,29,26,27,22,18,93,75,64,30.06,29.78,29.69,10,8,1,22,15,26,0.00,5,,345
2011-11-20,24,16,8,18,12,5,93,80,69,30.35,30.28,30.17,10,10,10,16,9,18,0.00,1,,346
2011-11-21,37,24,12,32,23,10,100,85,75,30.28,30.23,30.15,10,7,0,13,6,,0.00,6,,153
2011-11-22,41,34,28,36,32,27,93,84,81,30.16,30.08,30.02,10,6,2,7,4,,0.00,6,,109
2011-11-23,48,39,30,37,33,28,93,83,66,30.13,30.09,30.03,10,5,0,17,10,21,0.00,3,,195
2011-11-24,62,48,33,43,35,28,87,71,42,30.02,29.86,29.73,10,8,3,24,15,30,0.00,0,,188
2011-11-25,51,45,39,45,41,36,87,79,62,29.72,29.68,29.62,10,9,7,20,13,23,0.00,3,,189
2011-11-26,48,42,35,46,42,27,93,88,70,30.10,29.87,29.65,10,9,4,32,19,43,0.00,8,,306
2011-11-27,33,32,28,25,21,21,74,66,60,30.21,30.18,30.10,10,10,10,29,20,36,0.00,8,,332
2011-11-28,42,28,15,25,19,10,93,72,42,30.17,30.10,30.05,10,10,10,20,9,25,0.00,0,,195
2011-11-29,39,28,15,27,16,3,86,61,31,30.36,30.27,30.17,10,10,10,15,12,20,0.00,0,,326
2011-11-30,48,31,14,21,14,1,62,43,32,30.11,29.96,29.84,10,10,9,18,10,23,0.00,0,,211